CheckWX is a tool to help pilots better visualize weather data.  It is not intended as a substitute for an official pre-flight weather briefing.

13:44:18 UTC

KMCW TAF
Mason City Municipal Airport
Mason City, Iowa, USA
KMCW 211120Z 2112/2212 18012G18KT P6SM OVC010 FM211700 19017G25KT P6SM OVC015 FM220000 20012G18KT P6SM OVC025 FM220300 24009KT P6SM VCTS OVC025CB FM220700 30007KT P6SM BKN090

Sep-21@
12:00 UTC

Sep-21 @ 12:00 UTC

Sep-21@
17:00 UTC

Sep-21 @ 17:00 UTC

KMCW 211120Z 2112/2212 18012G18KT P6SM OVC010
Wind
  • 180° at 12 KTS
  • {Gusting to 18 KTS
Cloud Levels
  • Overcast at 1,000' AGL

Sep-21@
17:00 UTC

Sep-21 @ 17:00 UTC

Sep-22@
00:00 UTC

Sep-22 @ 00:00 UTC

FM211700 19017G25KT P6SM OVC015

From

From Standard forecast or significant change

Wind
  • 190° at 17 KTS
  • {Gusting to 25 KTS
Cloud Levels
  • Overcast at 1,500' AGL

Sep-22@
00:00 UTC

Sep-22 @ 00:00 UTC

Sep-22@
03:00 UTC

Sep-22 @ 03:00 UTC

FM220000 20012G18KT P6SM OVC025

From

From Standard forecast or significant change

Wind
  • 200° at 12 KTS
  • {Gusting to 18 KTS
Cloud Levels
  • Overcast at 2,500' AGL

Sep-22@
03:00 UTC

Sep-22 @ 03:00 UTC

Sep-22@
07:00 UTC

Sep-22 @ 07:00 UTC

FM220300 24009KT P6SM VCTS OVC025CB

From

From Standard forecast or significant change

Wind
  • 240° at 9 KTS
Conditions
Area Thunderstorm
Cloud Levels
  • Overcast at 2,500' AGL

Sep-22@
07:00 UTC

Sep-22 @ 07:00 UTC

Sep-22@
12:00 UTC

Sep-22 @ 12:00 UTC

FM220700 30007KT P6SM BKN090

From

From Standard forecast or significant change

Wind
  • 300° at 7 KTS
Cloud Levels
  • Broken at 9,000' AGL